Time;durP1;ratioP1;P1;durP2;ratioP2;P2;SDS_P1;SDS_P2;PMS_P1;PMS_P2;Temp;Humidity;BMP_temperature;BMP_pressure;BME280_temperature;BME280_humidity;BME280_pressure;Samples;Min_cycle;Max_cycle;Signal;HPM_P1;HPM_P2
2022/09/09 00:02:11;;;;;;;16.92;15.15;;;;;;;15.37;100.00;99218.41;5010697;28;20025;-79
2022/09/09 00:04:39;;;;;;;16.20;14.50;;;;;;;15.23;100.00;99207.13;5030210;28;20055;-79
2022/09/09 00:07:26;;;;;;;20.33;15.30;;;;;;;15.24;100.00;99213.22;5050727;28;20025;-79
2022/09/09 00:10:30;;;;;;;17.35;15.48;;;;;;;15.20;100.00;99215.22;5067557;28;20118;-79
2022/09/09 00:13:33;;;;;;;17.65;14.88;;;;;;;15.17;100.00;99222.50;5113533;28;20019;-79
2022/09/09 00:16:24;;;;;;;16.58;13.93;;;;;;;15.11;100.00;99229.00;5113263;27;20114;-79
2022/09/09 00:19:22;;;;;;;17.02;15.23;;;;;;;15.04;100.00;99225.13;5113192;28;20128;-79
2022/09/09 00:21:57;;;;;;;15.80;13.93;;;;;;;14.95;100.00;99216.13;5112986;28;20031;-79
2022/09/09 00:24:38;;;;;;;16.67;13.65;;;;;;;14.95;100.00;99225.78;5113139;28;20015;-79
2022/09/09 00:27:18;;;;;;;17.58;14.38;;;;;;;14.88;100.00;99225.41;5113211;28;20027;-79
2022/09/09 00:29:53;;;;;;;19.48;14.23;;;;;;;14.87;100.00;99228.97;5113005;28;20023;-79
2022/09/09 00:32:20;;;;;;;15.40;13.85;;;;;;;14.78;100.00;99224.38;5113083;28;20019;-79
2022/09/09 00:35:25;;;;;;;16.42;13.27;;;;;;;14.80;100.00;99230.38;5112728;28;20031;-79
2022/09/09 00:37:54;;;;;;;15.93;13.07;;;;;;;14.77;100.00;99227.94;5069587;28;20473;-79
2022/09/09 00:40:31;;;;;;;18.02;14.18;;;;;;;14.66;100.00;99220.84;5069798;28;20048;-79
2022/09/09 00:43:18;;;;;;;18.83;13.80;;;;;;;14.72;100.00;99225.66;5069779;28;20115;-79
2022/09/09 00:45:43;;;;;;;19.38;13.55;;;;;;;14.70;100.00;99227.53;5069611;28;20381;-79
2022/09/09 00:48:12;;;;;;;15.13;12.57;;;;;;;14.62;100.00;99216.78;5069769;28;20028;-79
2022/09/09 00:51:16;;;;;;;14.13;12.68;;;;;;;14.60;100.00;99220.44;5069445;28;20070;-79
2022/09/09 00:54:10;;;;;;;14.55;13.15;;;;;;;14.57;100.00;99229.34;5009704;28;20034;-79
2022/09/09 00:56:43;;;;;;;15.10;13.25;;;;;;;14.61;100.00;99240.44;5009655;28;20368;-79
2022/09/09 00:59:26;;;;;;;15.15;13.13;;;;;;;14.57;100.00;99245.06;5009911;28;20034;-79
2022/09/09 01:01:54;;;;;;;15.30;13.35;;;;;;;14.53;100.00;99234.91;5009660;28;20048;-79
2022/09/09 01:04:30;;;;;;;15.70;13.52;;;;;;;14.47;100.00;99234.34;5009752;28;20042;-79
2022/09/09 01:07:08;;;;;;;18.13;13.43;;;;;;;14.45;100.00;99231.03;5009860;28;20022;-79
2022/09/09 01:09:54;;;;;;;16.17;12.93;;;;;;;14.50;100.00;99233.34;5009699;28;20038;-79
2022/09/09 01:12:33;;;;;;;15.63;13.35;;;;;;;14.46;100.00;99227.44;5009653;28;20092;-79
2022/09/09 01:15:03;;;;;;;14.70;12.85;;;;;;;14.43;100.00;99222.41;5030216;28;20416;-79
2022/09/09 01:17:34;;;;;;;14.50;12.70;;;;;;;14.39;100.00;99230.59;5049530;28;20090;-79
2022/09/09 01:20:08;;;;;;;14.63;12.05;;;;;;;14.42;100.00;99240.88;5049521;28;20025;-79
2022/09/09 01:22:57;;;;;;;14.73;12.05;;;;;;;14.39;100.00;99251.56;5049250;28;20029;-79
2022/09/09 01:25:41;;;;;;;12.43;11.18;;;;;;;14.39;100.00;99248.94;5049436;28;20043;-79
2022/09/09 01:28:29;;;;;;;17.13;12.30;;;;;;;14.35;100.00;99242.22;5049478;28;20040;-79
2022/09/09 01:30:57;;;;;;;14.32;12.88;;;;;;;14.33;100.00;99250.19;5087110;28;20046;-79
2022/09/09 01:33:22;;;;;;;17.50;13.02;;;;;;;14.31;100.00;99253.84;5116787;28;20047;-79
2022/09/09 01:35:56;;;;;;;13.43;11.98;;;;;;;14.25;100.00;99244.66;5116460;28;20460;-79
2022/09/09 01:38:24;;;;;;;14.38;12.93;;;;;;;14.23;100.00;99249.97;5116555;27;20027;-79
2022/09/09 01:40:52;;;;;;;13.60;11.95;;;;;;;14.16;100.00;99245.28;5116190;28;20019;-79
2022/09/09 01:43:19;;;;;;;14.80;11.52;;;;;;;14.13;100.00;99237.63;5116288;28;20030;-79
2022/09/09 01:45:49;;;;;;;12.98;11.60;;;;;;;14.18;100.00;99253.84;5116338;28;20380;-79
2022/09/09 01:48:15;;;;;;;15.30;12.27;;;;;;;14.14;100.00;99247.16;5116412;28;20451;-79
2022/09/09 01:51:18;;;;;;;18.65;11.82;;;;;;;14.13;100.00;99248.94;5116237;28;20108;-79
2022/09/09 01:57:11;;;;;;;13.80;12.13;;;;;;;14.06;100.00;99254.69;5116153;28;20039;-79
2022/09/09 01:59:52;;;;;;;16.88;12.15;;;;;;;13.97;100.00;99254.34;5115922;28;20055;-79
2022/09/09 02:02:18;;;;;;;14.68;11.77;;;;;;;13.98;100.00;99260.41;5116003;28;20361;-79
2022/09/09 02:04:48;;;;;;;13.25;11.90;;;;;;;13.92;100.00;99247.75;5115385;28;20044;-79
2022/09/09 02:07:37;;;;;;;14.82;11.00;;;;;;;14.00;100.00;99257.72;5115870;28;20019;-79
2022/09/09 02:10:48;;;;;;;11.07;10.00;;;;;;;13.95;100.00;99258.88;5116187;27;20019;-79
2022/09/09 02:13:17;;;;;;;11.45;10.07;;;;;;;13.93;100.00;99258.13;5012765;28;20030;-79
2022/09/09 02:16:17;;;;;;;14.27;9.90;;;;;;;13.90;100.00;99271.41;5012711;28;20045;-79
2022/09/09 02:19:08;;;;;;;17.27;10.35;;;;;;;13.86;100.00;99263.84;5012802;28;20371;-79
2022/09/09 02:21:35;;;;;;;10.38;9.43;;;;;;;13.83;100.00;99267.53;5012800;28;20068;-79
2022/09/09 02:24:05;;;;;;;12.20;9.48;;;;;;;13.83;100.00;99282.41;5012594;28;20038;-79
2022/09/09 02:26:33;;;;;;;12.88;10.20;;;;;;;13.80;100.00;99265.09;5012804;28;20032;-79
2022/09/09 02:29:01;;;;;;;12.48;9.15;;;;;;;13.71;100.00;99266.56;5012556;28;20150;-79
2022/09/09 02:31:27;;;;;;;10.45;9.35;;;;;;;13.73;100.00;99279.53;5012596;28;20041;-79
2022/09/09 02:34:00;;;;;;;13.15;11.10;;;;;;;13.65;100.00;99266.09;5012512;28;20045;-79
2022/09/09 02:36:29;;;;;;;11.23;10.13;;;;;;;13.66;100.00;99278.28;5012565;28;20049;-79
2022/09/09 02:38:55;;;;;;;12.57;9.40;;;;;;;13.63;100.00;99271.44;5012413;28;20033;-79
2022/09/09 02:41:25;;;;;;;12.65;9.77;;;;;;;13.57;100.00;99265.75;5012028;28;20108;-79
2022/09/09 02:43:51;;;;;;;11.27;10.02;;;;;;;13.59;100.00;99269.97;5011282;28;20559;-79
2022/09/09 02:46:28;;;;;;;12.18;10.18;;;;;;;13.64;100.00;99277.50;5012396;28;20046;-79
2022/09/09 02:48:57;;;;;;;12.60;10.13;;;;;;;13.63;100.00;99278.47;5016081;28;20076;-79
2022/09/09 02:51:50;;;;;;;12.00;9.88;;;;;;;13.59;100.00;99283.06;5115138;28;20031;-79
2022/09/09 02:54:31;;;;;;;11.15;8.68;;;;;;;13.54;100.00;99279.06;5115005;28;20081;-78
2022/09/09 02:57:08;;;;;;;10.52;9.43;;;;;;;13.44;100.00;99276.19;5114766;28;20020;-79
2022/09/09 02:59:34;;;;;;;10.05;9.05;;;;;;;13.49;100.00;99289.81;5115005;28;20020;-79
2022/09/09 03:01:59;;;;;;;11.25;9.10;;;;;;;13.45;100.00;99288.34;5114542;28;20046;-79
2022/09/09 03:04:25;;;;;;;10.13;9.13;;;;;;;13.45;100.00;99283.94;5114767;27;20031;-79
2022/09/09 03:06:50;;;;;;;11.18;8.65;;;;;;;13.46;100.00;99288.22;5114553;28;20044;-79
2022/09/09 03:09:16;;;;;;;10.32;9.32;;;;;;;13.41;100.00;99281.63;5114933;28;20050;-79
2022/09/09 03:11:41;;;;;;;9.35;8.45;;;;;;;13.41;100.00;99282.47;5114574;28;20057;-79
2022/09/09 03:14:08;;;;;;;11.90;9.73;;;;;;;13.41;100.00;99287.69;5114734;28;20024;-79
2022/09/09 03:16:34;;;;;;;9.32;8.35;;;;;;;13.39;100.00;99296.56;5114646;28;20016;-79
2022/09/09 03:19:00;;;;;;;12.93;8.50;;;;;;;13.36;100.00;99283.72;5114353;28;20034;-79
2022/09/09 03:21:25;;;;;;;10.00;8.88;;;;;;;13.27;100.00;99277.25;5114383;28;20023;-79
2022/09/09 03:23:51;;;;;;;9.27;8.40;;;;;;;13.34;100.00;99296.88;5114408;27;20027;-79
2022/09/09 03:26:16;;;;;;;10.30;9.02;;;;;;;13.39;100.00;99296.56;5114659;28;20121;-79
2022/09/09 03:28:42;;;;;;;10.00;8.98;;;;;;;13.41;100.00;99299.94;5114232;28;20103;-79
2022/09/09 03:31:10;;;;;;;9.27;7.90;;;;;;;13.34;100.00;99289.00;5114211;28;20077;-79
2022/09/09 03:33:38;;;;;;;8.75;7.85;;;;;;;13.32;100.00;99292.69;5114205;28;20051;-79
2022/09/09 03:36:05;;;;;;;10.02;7.97;;;;;;;13.32;100.00;99301.38;5113912;28;20024;-78
2022/09/09 03:38:31;;;;;;;9.27;8.25;;;;;;;13.26;100.00;99293.91;5114290;28;20047;-79
2022/09/09 03:40:57;;;;;;;10.85;7.75;;;;;;;13.23;100.00;99297.56;5113821;27;20487;-79
2022/09/09 03:43:24;;;;;;;8.73;7.93;;;;;;;13.22;100.00;99292.38;5114182;28;20064;-79
2022/09/09 03:45:49;;;;;;;10.20;8.15;;;;;;;13.21;100.00;99302.00;5113824;28;20456;-79
2022/09/09 03:48:16;;;;;;;9.50;8.50;;;;;;;13.18;100.00;99310.03;5113991;28;20030;-79
2022/09/09 03:51:01;;;;;;;11.13;8.48;;;;;;;13.12;100.00;99307.81;5113654;28;20020;-79
2022/09/09 03:53:26;;;;;;;9.73;8.75;;;;;;;13.10;100.00;99306.22;5113725;28;20023;-79
2022/09/09 03:55:54;;;;;;;9.77;8.18;;;;;;;13.05;100.00;99303.06;5113809;28;20535;-79
2022/09/09 03:58:23;;;;;;;9.27;7.57;;;;;;;13.07;100.00;99319.50;5113707;28;20392;-79
2022/09/09 04:01:00;;;;;;;11.18;8.25;;;;;;;13.02;100.00;99301.50;5113411;28;20046;-79
2022/09/09 04:03:26;;;;;;;10.00;7.70;;;;;;;13.02;100.00;99305.84;5113835;27;20028;-79
2022/09/09 04:05:53;;;;;;;9.55;7.88;;;;;;;13.03;100.00;99310.16;5113426;27;20353;-79
2022/09/09 04:08:19;;;;;;;8.75;7.65;;;;;;;13.00;100.00;99313.81;5113464;28;20499;-79
2022/09/09 04:10:46;;;;;;;10.20;8.00;;;;;;;12.98;100.00;99313.06;5113304;28;20019;-79
2022/09/09 04:13:15;;;;;;;8.10;7.30;;;;;;;12.92;100.00;99295.97;5113367;28;20020;-79
2022/09/09 04:15:40;;;;;;;8.07;7.18;;;;;;;12.91;100.00;99303.91;5113332;28;20073;-79
2022/09/09 04:18:06;;;;;;;7.47;6.78;;;;;;;12.94;100.00;99316.81;5113321;28;20031;-79
2022/09/09 04:20:32;;;;;;;7.97;7.18;;;;;;;12.96;100.00;99315.75;5113359;28;20098;-79
2022/09/09 04:22:57;;;;;;;8.73;7.93;;;;;;;12.94;100.00;99317.66;5113169;28;20418;-79
2022/09/09 04:25:23;;;;;;;8.48;7.68;;;;;;;12.90;100.00;99313.53;5113221;28;20048;-79
2022/09/09 04:27:56;;;;;;;9.98;6.53;;;;;;;12.90;100.00;99320.53;5112934;28;20039;-79
2022/09/09 04:30:22;;;;;;;8.25;7.45;;;;;;;12.84;100.00;99313.91;5113349;28;20023;-79
2022/09/09 04:32:47;;;;;;;9.68;7.28;;;;;;;12.92;100.00;99322.09;5113012;28;20023;-79
2022/09/09 04:35:12;;;;;;;9.02;8.23;;;;;;;12.91;100.00;99323.06;5113214;28;20068;-79
2022/09/09 04:37:38;;;;;;;8.52;7.65;;;;;;;12.91;100.00;99315.22;5110299;28;20404;-79
2022/09/09 04:40:04;;;;;;;8.32;7.53;;;;;;;12.91;100.00;99319.59;5110285;28;20197;-79
2022/09/09 04:42:29;;;;;;;9.65;7.55;;;;;;;12.93;100.00;99317.72;5110407;28;20038;-79
2022/09/09 04:44:55;;;;;;;8.85;7.82;;;;;;;12.96;100.00;99313.16;5110185;28;20031;-79
2022/09/09 04:47:21;;;;;;;8.65;7.80;;;;;;;12.99;100.00;99312.97;5110384;28;20032;-79
2022/09/09 04:49:46;;;;;;;10.65;8.30;;;;;;;13.02;100.00;99325.03;5110122;28;20411;-79
2022/09/09 04:52:12;;;;;;;8.02;7.25;;;;;;;13.07;100.00;99328.19;5110222;28;20040;-79
2022/09/09 04:54:37;;;;;;;9.32;7.25;;;;;;;13.07;100.00;99328.19;5093223;28;20387;-79
2022/09/09 04:57:03;;;;;;;8.43;7.63;;;;;;;13.15;100.00;99332.94;5109938;28;20034;-79
2022/09/09 04:59:28;;;;;;;9.43;7.30;;;;;;;13.20;100.00;99339.56;5110185;28;20058;-79
2022/09/09 05:01:55;;;;;;;8.20;7.40;;;;;;;13.25;100.00;99328.00;5109881;28;20455;-79
2022/09/09 05:04:20;;;;;;;9.15;7.10;;;;;;;13.39;100.00;99333.19;5109758;28;20040;-79
2022/09/09 05:06:46;;;;;;;8.38;7.22;;;;;;;13.59;100.00;99332.78;5109416;28;20594;-79
2022/09/09 05:09:11;;;;;;;8.75;7.95;;;;;;;13.84;100.00;99339.88;5105537;28;20043;-79
2022/09/09 05:11:38;;;;;;;9.88;8.05;;;;;;;13.98;100.00;99324.09;5112682;28;20043;-79
2022/09/09 05:14:04;;;;;;;8.35;7.60;;;;;;;14.32;100.00;99341.97;5112237;28;20587;-79
2022/09/09 05:16:30;;;;;;;8.30;7.50;;;;;;;14.57;100.00;99331.56;5112337;28;20512;-79
2022/09/09 05:18:55;;;;;;;10.77;7.85;;;;;;;14.95;100.00;99335.94;5112336;28;20058;-79
2022/09/09 05:21:23;;;;;;;8.20;7.40;;;;;;;15.78;100.00;99346.66;5112396;28;20023;-79
2022/09/09 05:23:48;;;;;;;7.70;6.60;;;;;;;16.26;100.00;99327.38;5112227;28;20021;-79
2022/09/09 05:26:17;;;;;;;7.22;6.55;;;;;;;16.46;100.00;99339.84;5112249;28;20023;-79
2022/09/09 05:28:42;;;;;;;8.10;6.50;;;;;;;16.47;100.00;99338.91;5112531;28;20038;-79
2022/09/09 05:31:11;;;;;;;7.65;6.82;;;;;;;16.57;100.00;99347.78;5112220;28;20019;-79
2022/09/09 05:33:36;;;;;;;8.10;6.57;;;;;;;16.65;100.00;99355.09;5112338;28;20059;-79
2022/09/09 05:36:07;;;;;;;10.90;5.93;;;;;;;16.92;100.00;99357.41;5112046;28;20050;-79
2022/09/09 05:38:34;;;;;;;5.82;5.22;;;;;;;17.33;100.00;99356.81;5112292;28;20028;-79
2022/09/09 05:41:00;;;;;;;6.32;5.72;;;;;;;18.19;100.00;99357.78;5109650;28;20035;-79
2022/09/09 05:43:27;;;;;;;6.75;5.43;;;;;;;18.23;100.00;99363.63;5112364;28;20371;-79
2022/09/09 05:46:10;;;;;;;6.10;5.50;;;;;;;18.25;100.00;99361.72;5112004;28;20110;-79
2022/09/09 05:48:40;;;;;;;6.18;5.57;;;;;;;18.53;100.00;99370.78;5112202;28;20019;-79
2022/09/09 05:51:07;;;;;;;;;;;;;;;18.79;100.00;99368.59;5112305;28;20483;-79
2022/09/09 05:53:35;;;;;;;8.65;5.00;;;;;;;19.16;100.00;99369.75;5112015;28;19908;-80
2022/09/09 05:56:05;;;;;;;6.45;4.63;;;;;;;20.85;94.07;99366.00;5111990;28;20107;-80
2022/09/09 05:58:32;;;;;;;5.60;5.07;;;;;;;21.11;89.44;99357.41;5111942;28;20456;-79
2022/09/09 06:01:02;;;;;;;5.78;5.05;;;;;;;20.66;90.06;99355.50;5111749;28;20023;-80
2022/09/09 06:03:28;;;;;;;7.40;4.45;;;;;;;20.40;92.11;99357.88;5110356;28;20024;-79
2022/09/09 06:05:58;;;;;;;6.55;4.63;;;;;;;20.16;89.66;99353.00;5101644;28;20044;-79
2022/09/09 06:08:23;;;;;;;8.63;4.60;;;;;;;20.71;88.10;99355.06;5091683;28;20020;-80
2022/09/09 06:10:49;;;;;;;4.75;4.13;;;;;;;21.25;87.80;99362.25;5091724;28;20517;-80
2022/09/09 06:13:14;;;;;;;4.70;4.03;;;;;;;21.15;85.90;99359.66;5091518;28;20065;-80
2022/09/09 06:15:49;;;;;;;6.15;3.90;;;;;;;21.13;87.67;99348.34;5091554;28;20026;-80
2022/09/09 06:18:17;;;;;;;7.65;4.35;;;;;;;21.02;87.15;99345.88;5094805;28;20369;-80
2022/09/09 06:20:43;;;;;;;4.32;3.92;;;;;;;20.84;84.66;99348.47;5095121;28;20023;-80
2022/09/09 06:23:08;;;;;;;4.90;3.90;;;;;;;21.03;84.67;99354.69;5095543;28;20124;-79
2022/09/09 06:25:34;;;;;;;7.03;3.80;;;;;;;21.17;85.03;99348.91;5095584;28;20153;-80
2022/09/09 06:27:59;;;;;;;5.35;3.97;;;;;;;21.40;85.13;99347.53;5095153;28;20111;-80
2022/09/09 06:30:24;;;;;;;3.78;3.42;;;;;;;21.75;84.88;99340.66;5093995;28;20104;-80
2022/09/09 06:32:50;;;;;;;5.45;3.58;;;;;;;21.45;82.42;99333.88;5095072;28;20031;-80
2022/09/09 06:35:16;;;;;;;6.68;3.60;;;;;;;22.04;81.14;99339.59;5094918;28;20020;-80
2022/09/09 06:37:45;;;;;;;5.10;4.43;;;;;;;22.31;81.38;99339.50;5095112;28;20023;-80
2022/09/09 06:40:10;;;;;;;6.38;3.83;;;;;;;22.56;79.63;99343.19;5094849;28;20028;-80
2022/09/09 06:42:36;;;;;;;7.22;3.78;;;;;;;22.76;76.34;99350.94;5094787;28;20016;-80
2022/09/09 06:45:01;;;;;;;7.78;4.28;;;;;;;22.66;76.56;99346.56;5094648;28;20027;-80
2022/09/09 06:47:28;;;;;;;5.45;3.60;;;;;;;22.54;76.89;99344.31;5094718;28;20019;-79
2022/09/09 06:49:53;;;;;;;4.18;3.78;;;;;;;22.23;79.25;99350.06;5094639;28;20058;-80
2022/09/09 06:52:19;;;;;;;5.40;3.72;;;;;;;22.09;80.85;99353.22;5094679;28;20463;-80
2022/09/09 06:54:45;;;;;;;5.32;3.40;;;;;;;22.15;82.54;99358.78;5094595;28;20407;-80
2022/09/09 06:57:10;;;;;;;3.80;3.28;;;;;;;22.11;83.26;99351.25;5094313;28;20050;-80
2022/09/09 06:59:36;;;;;;;5.35;3.58;;;;;;;22.42;82.07;99344.59;5094644;28;20456;-80
2022/09/09 07:02:01;;;;;;;3.72;3.25;;;;;;;22.83;81.57;99351.97;5094167;28;20020;-80
2022/09/09 07:04:26;;;;;;;3.83;2.90;;;;;;;22.97;81.04;99358.56;5094518;28;20047;-80
2022/09/09 07:06:52;;;;;;;3.67;3.30;;;;;;;22.70;80.98;99349.72;5094680;28;20395;-80
2022/09/09 07:09:17;;;;;;;3.78;2.78;;;;;;;22.51;81.13;99369.34;5094249;28;20457;-80
2022/09/09 07:11:48;;;;;;;4.85;3.60;;;;;;;23.57;79.65;99361.13;5094417;28;20016;-80
2022/09/09 07:14:15;;;;;;;3.70;3.30;;;;;;;25.46;73.67;99366.22;5094125;28;20085;-80
2022/09/09 07:16:41;;;;;;;3.75;3.45;;;;;;;26.48;69.06;99369.56;5094154;28;20034;-80
2022/09/09 07:19:07;;;;;;;4.35;3.42;;;;;;;26.19;68.05;99367.63;5094084;28;20084;-80
2022/09/09 07:21:33;;;;;;;4.78;3.97;;;;;;;25.19;69.53;99363.97;5094215;28;20024;-80
2022/09/09 07:23:59;;;;;;;5.10;4.13;;;;;;;24.35;72.80;99377.56;5094183;28;20027;-80
2022/09/09 07:26:30;;;;;;;5.82;5.13;;;;;;;24.41;72.57;99378.78;5094297;28;20398;-80
2022/09/09 07:28:58;;;;;;;4.95;4.30;;;;;;;25.05;72.79;99376.16;5092997;28;20028;-80
2022/09/09 07:31:31;;;;;;;5.03;4.00;;;;;;;27.35;67.59;99377.03;5093842;28;20063;-80
2022/09/09 07:33:59;;;;;;;6.72;4.28;;;;;;;29.76;60.39;99380.50;5093849;28;20024;-80
2022/09/09 07:36:30;;;;;;;3.95;3.50;;;;;;;32.21;54.11;99375.72;5093981;28;20062;-80
2022/09/09 07:38:59;;;;;;;5.57;3.42;;;;;;;33.17;49.73;99371.78;5093740;28;20032;-81
2022/09/09 07:41:27;;;;;;;3.92;2.78;;;;;;;31.84;50.03;99372.84;5093858;28;20020;-81
2022/09/09 07:43:53;;;;;;;4.07;3.08;;;;;;;30.05;54.12;99375.81;5093691;28;20024;-80
2022/09/09 07:46:21;;;;;;;4.63;2.85;;;;;;;28.73;57.93;99376.81;5093647;28;20673;-80
2022/09/09 07:48:52;;;;;;;8.15;3.60;;;;;;;28.46;59.72;99375.78;5093611;28;20384;-80
2022/09/09 07:51:21;;;;;;;3.78;3.40;;;;;;;31.17;54.35;99358.81;5093369;28;20075;-80
2022/09/09 07:53:47;;;;;;;5.03;3.33;;;;;;;33.42;49.45;99366.28;5093503;28;20024;-80
2022/09/09 07:56:16;;;;;;;4.68;3.13;;;;;;;34.35;46.77;99378.53;5093191;28;20031;-81
2022/09/09 07:58:44;;;;;;;4.05;2.90;;;;;;;33.74;46.37;99386.63;5093499;28;20028;-80
2022/09/09 08:01:17;;;;;;;3.70;2.90;;;;;;;31.43;50.93;99378.59;5093211;28;20112;-80
2022/09/09 08:03:44;;;;;;;4.35;2.92;;;;;;;29.36;54.63;99368.75;5093416;28;20169;-80
2022/09/09 08:06:11;;;;;;;3.55;2.95;;;;;;;27.69;59.35;99384.44;5091584;28;20507;-80
2022/09/09 08:08:37;;;;;;;4.05;3.22;;;;;;;26.31;62.20;99374.19;5109994;27;20016;-80
2022/09/09 08:11:07;;;;;;;4.50;3.42;;;;;;;25.39;65.88;99381.22;5128881;27;20031;-80
2022/09/09 08:13:33;;;;;;;4.25;3.40;;;;;;;25.14;68.34;99381.31;5115098;27;20020;-80
2022/09/09 08:16:08;;;;;;;4.18;3.25;;;;;;;24.87;68.76;99390.53;5116792;27;20019;-80
2022/09/09 08:18:34;;;;;;;3.70;3.10;;;;;;;24.65;70.53;99391.25;5133949;27;20131;-80
2022/09/09 08:21:09;;;;;;;3.72;3.33;;;;;;;24.26;70.30;99388.38;5133638;27;20030;-80
2022/09/09 08:23:35;;;;;;;4.50;3.50;;;;;;;24.13;72.31;99396.84;5133573;27;20098;-80
2022/09/09 08:26:22;;;;;;;3.55;3.25;;;;;;;23.68;73.12;99387.44;5117414;27;20051;-80
2022/09/09 08:28:49;;;;;;;4.20;2.92;;;;;;;23.51;73.81;99391.00;5113224;28;20061;-80
2022/09/09 08:31:21;;;;;;;5.38;3.28;;;;;;;23.45;75.18;99391.66;5112959;28;20051;-80
2022/09/09 08:33:47;;;;;;;4.78;2.83;;;;;;;23.36;75.72;99380.16;5112995;28;20098;-80
2022/09/09 08:36:15;;;;;;;4.60;3.30;;;;;;;23.30;76.11;99376.34;5112988;28;20035;-80
2022/09/09 08:38:42;;;;;;;3.88;2.58;;;;;;;23.25;74.95;99373.28;5113113;28;20485;-80
2022/09/09 08:41:35;;;;;;;3.35;2.83;;;;;;;23.38;75.67;99378.16;5112647;28;20023;-80
2022/09/09 08:44:18;;;;;;;5.57;3.05;;;;;;;23.40;76.12;99379.69;5092366;28;20028;-80
2022/09/09 08:46:58;;;;;;;6.68;3.00;;;;;;;23.28;74.17;99382.78;5092689;28;20024;-80
2022/09/09 08:49:49;;;;;;;3.13;2.83;;;;;;;23.02;74.04;99367.72;5102355;28;20015;-80
2022/09/09 08:52:24;;;;;;;6.40;3.10;;;;;;;23.03;76.42;99377.34;5097163;28;20020;-80
2022/09/09 08:54:51;;;;;;;5.97;2.83;;;;;;;22.98;77.70;99371.69;5112604;28;20111;-80
2022/09/09 08:57:28;;;;;;;6.03;3.42;;;;;;;22.96;78.21;99370.16;5101354;28;20027;-80
2022/09/09 08:59:56;;;;;;;6.38;3.55;;;;;;;22.95;78.89;99379.13;5092571;28;20488;-80
2022/09/09 09:02:29;;;;;;;3.83;3.00;;;;;;;22.99;78.34;99391.94;5092066;28;20032;-80
2022/09/09 09:05:17;;;;;;;4.65;3.20;;;;;;;22.98;76.71;99392.94;5096064;28;20042;-80
2022/09/09 09:07:58;;;;;;;7.55;3.35;;;;;;;23.00;76.97;99404.22;5112770;28;20023;-80
2022/09/09 09:10:50;;;;;;;6.05;3.40;;;;;;;23.00;76.42;99408.69;5112460;28;20077;-80
2022/09/09 09:13:25;;;;;;;7.97;3.08;;;;;;;22.92;76.26;99388.22;5112176;28;20076;-80
2022/09/09 09:15:57;;;;;;;5.15;2.92;;;;;;;22.86;77.66;99388.84;5117069;28;20028;-80
2022/09/09 09:18:23;;;;;;;3.70;2.88;;;;;;;22.75;78.08;99387.25;5111072;27;20020;-80
2022/09/09 09:21:00;;;;;;;3.53;2.50;;;;;;;22.78;78.34;99391.44;5092099;28;20031;-80
2022/09/09 09:23:36;;;;;;;3.88;2.60;;;;;;;22.66;77.96;99391.69;5091884;28;20368;-80
2022/09/09 09:26:01;;;;;;;4.18;2.97;;;;;;;22.57;78.53;99389.97;5091930;28;20020;-80
2022/09/09 09:28:31;;;;;;;4.05;2.88;;;;;;;22.47;78.94;99385.75;5091862;28;20365;-80
2022/09/09 09:31:03;;;;;;;6.00;2.95;;;;;;;22.43;79.45;99387.88;5091918;28;20093;-80
2022/09/09 09:33:34;;;;;;;4.82;2.88;;;;;;;22.44;80.62;99405.44;5091963;28;20020;-80
2022/09/09 09:35:59;;;;;;;5.70;2.70;;;;;;;22.41;82.03;99401.28;5091924;28;20028;-80
2022/09/09 09:38:28;;;;;;;3.95;2.67;;;;;;;22.38;81.95;99401.59;5091586;28;20022;-80
2022/09/09 09:40:58;;;;;;;3.63;2.50;;;;;;;22.29;82.26;99396.34;5091948;28;20102;-80
2022/09/09 09:43:27;;;;;;;6.45;2.95;;;;;;;22.19;78.48;99395.63;5099106;28;20034;-80
2022/09/09 09:45:53;;;;;;;5.32;2.58;;;;;;;22.17;78.02;99395.78;5107613;28;20437;-80
2022/09/09 09:48:18;;;;;;;2.97;2.13;;;;;;;22.17;78.81;99403.72;5103046;28;20103;-80
2022/09/09 09:50:55;;;;;;;3.55;2.10;;;;;;;22.15;75.33;99406.53;5102470;28;20398;-80
2022/09/09 09:53:28;;;;;;;4.47;2.30;;;;;;;22.14;74.70;99402.22;5114631;28;20479;-80
2022/09/09 09:56:00;;;;;;;2.90;2.50;;;;;;;22.12;75.58;99396.25;5116152;28;20024;-80
2022/09/09 09:58:33;;;;;;;4.93;2.60;;;;;;;22.05;76.14;99381.88;5105632;28;20058;-80
2022/09/09 10:00:59;;;;;;;2.40;2.03;;;;;;;22.12;75.88;99384.72;5106011;28;20070;-80
2022/09/09 10:03:37;;;;;;;2.35;1.80;;;;;;;22.07;77.24;99377.22;5103530;28;20027;-80
2022/09/09 10:06:03;;;;;;;4.70;1.92;;;;;;;22.32;76.97;99402.19;5103745;28;20089;-80
2022/09/09 10:08:28;;;;;;;3.92;2.30;;;;;;;22.35;77.01;99390.47;5104762;27;20157;-80
2022/09/09 10:11:29;;;;;;;3.13;2.00;;;;;;;22.54;77.94;99405.34;5105058;28;20500;-80
2022/09/09 10:14:11;;;;;;;3.90;2.15;;;;;;;22.64;76.55;99401.63;5043076;28;20032;-80
2022/09/09 10:17:14;;;;;;;4.78;2.20;;;;;;;22.79;76.10;99406.38;5042216;28;20037;-80
2022/09/09 10:19:52;;;;;;;3.63;2.00;;;;;;;22.93;75.68;99405.84;5039594;28;20025;-80
2022/09/09 10:22:30;;;;;;;3.63;2.08;;;;;;;22.97;72.88;99409.03;5042665;28;20041;-80
2022/09/09 10:25:25;;;;;;;3.03;1.80;;;;;;;23.07;72.73;99405.25;5052584;28;20036;-80
2022/09/09 10:28:12;;;;;;;3.53;1.90;;;;;;;23.10;73.37;99396.16;5052472;28;20028;-80
2022/09/09 10:31:03;;;;;;;3.38;2.00;;;;;;;23.07;73.70;99401.78;5056264;28;20051;-80
2022/09/09 10:33:44;;;;;;;4.10;1.98;;;;;;;22.99;71.39;99393.75;5037784;28;20488;-80
2022/09/09 10:36:23;;;;;;;5.60;2.05;;;;;;;22.94;71.85;99394.22;5040710;28;20021;-79
2022/09/09 10:39:05;;;;;;;4.15;2.17;;;;;;;22.96;72.48;99396.72;5045413;28;20049;-80
2022/09/09 10:41:33;;;;;;;4.60;1.90;;;;;;;22.90;70.96;99393.69;5038397;28;20086;-80
2022/09/09 10:44:22;;;;;;;3.13;1.80;;;;;;;22.89;72.47;99391.19;5040143;28;20156;-80
2022/09/09 10:47:00;;;;;;;4.23;2.13;;;;;;;22.84;70.93;99388.16;5042516;28;20033;-80
2022/09/09 10:50:03;;;;;;;2.80;2.20;;;;;;;22.85;72.42;99389.84;5049450;28;20032;-80
2022/09/09 10:52:48;;;;;;;3.10;2.00;;;;;;;22.75;69.77;99375.81;5102716;28;20020;-80
2022/09/09 10:55:18;;;;;;;10.85;2.97;;;;;;;22.79;70.26;99378.00;5102705;28;20044;-80
2022/09/09 10:58:00;;;;;;;2.65;2.13;;;;;;;22.77;70.25;99379.97;5100304;28;20085;-80
2022/09/09 11:00:42;;;;;;;5.38;2.83;;;;;;;22.80;71.08;99382.34;5096250;28;20392;-79
2022/09/09 11:03:37;;;;;;;8.77;3.53;;;;;;;22.80;70.67;99384.16;5103837;28;20019;-79
2022/09/09 11:06:12;;;;;;;4.82;2.30;;;;;;;22.69;68.65;99382.59;5041214;28;20040;-79
2022/09/09 11:08:39;;;;;;;3.05;1.85;;;;;;;22.64;69.39;99382.22;5038796;28;20056;-79
2022/09/09 11:11:12;;;;;;;1.90;1.70;;;;;;;22.55;69.97;99378.69;5041170;28;20041;-80
2022/09/09 11:14:01;;;;;;;1.80;1.65;;;;;;;22.55;71.04;99377.84;5040727;28;20021;-79
2022/09/09 11:16:53;;;;;;;1.95;1.38;;;;;;;22.56;70.12;99385.66;5040863;28;20548;-79
2022/09/09 11:19:30;;;;;;;2.55;1.70;;;;;;;22.57;70.85;99383.81;5039701;28;20393;-79
2022/09/09 11:21:57;;;;;;;4.07;1.77;;;;;;;22.61;71.81;99378.03;5039668;28;20036;-79
2022/09/09 11:24:32;;;;;;;2.45;1.73;;;;;;;22.68;71.83;99386.22;5043842;28;20090;-79
2022/09/09 11:27:12;;;;;;;3.17;1.60;;;;;;;22.65;70.16;99389.19;5044334;28;20456;-79
2022/09/09 11:29:49;;;;;;;7.63;3.55;;;;;;;22.60;69.79;99384.34;5040237;28;20029;-79
2022/09/09 11:32:29;;;;;;;6.57;2.63;;;;;;;22.70;69.48;99399.34;5039659;28;20029;-79
2022/09/09 11:35:24;;;;;;;3.35;1.80;;;;;;;22.84;69.68;99385.53;5039799;28;20027;-79
2022/09/09 11:38:27;;;;;;;2.75;1.92;;;;;;;22.99;69.82;99394.59;5040754;28;20040;-79
2022/09/09 11:41:00;;;;;;;7.60;2.13;;;;;;;22.99;67.10;99383.13;5039045;28;20028;-79
2022/09/09 11:43:33;;;;;;;3.22;1.88;;;;;;;23.03;66.56;99390.63;5086881;28;20034;-79
2022/09/09 11:46:02;;;;;;;2.90;2.13;;;;;;;23.06;67.93;99390.31;5102913;28;20033;-79
2022/09/09 11:48:35;;;;;;;2.35;1.70;;;;;;;23.03;67.93;99387.97;5098279;28;20384;-80
2022/09/09 11:51:07;;;;;;;3.08;1.70;;;;;;;23.01;66.69;99391.78;5097010;28;20020;-80
2022/09/09 11:53:34;;;;;;;5.93;3.10;;;;;;;23.04;66.47;99386.13;5093303;28;20067;-80